Terminal Aerodrome Forecast
Issued by NWS

Home | Current Version | Previous Version | Text Only | Print | Product List | Glossary On
Versions: 1 2 3 4 5 6 7 8 9 10 11 12 13 14 15 16 17 18 19 20 21
000
FTUS45 KGJT 250520
TAFASE
TAF
KASE 250520Z 2506/2606 20005KT P6SM SCT100
     FM251700 22012G20KT P6SM SCT200
     FM252000 23015G25KT P6SM BKN200
     FM260000 20007KT P6SM BKN180=

USA.gov is the U.S. government's official web portal to all federal, state and local government web resources and services.